KCOD/COD METAR and TAF weather

Enter ICAO airport designator
Station Type Date Time Source
KCOD METAR 2019/12/06 03:56 UTC NOAA

KCOD 060356Z AUTO 20005KT 10SM CLR M05/M07 A3016 RMK AO2 SLP258 T10501067 FZRANO


Station Type Date Time Source
KCOD Decoded METAR 2019/12/06 03:56 UTC NOAA

Cody, WY, United States (KCOD) 44-31N 109-01W 1553M
Dec 05, 2019 - 10:56 PM EST / 2019.12.06 0356 UTC
Wind: from the SSW (200 degrees) at 6 MPH (5 KT):0
Visibility: 10 mile(s):0
Sky conditions: clear
Temperature: 23.0 F (-5.0 C)
Windchill: 15 F (-9 C):1
Dew Point: 19.9 F (-6.7 C)
Relative Humidity: 87%
Pressure (altimeter): 30.16 in. Hg (1021 hPa)
ob: KCOD 060356Z AUTO 20005KT 10SM CLR M05/M07 A3016 RMK AO2 SLP258 T10501067 FZRANO
cycle: 4

Station Type Date Time Source
KCOD TAF 2019/12/05 18:39 UTC NOAA

TAF KCOD 051737Z 0518/0618 VRB05KT P6SM SCT200
FM051900 05005KT P6SM FEW200
FM060400 24007KT P6SM BKN200
AMD LTD TO CLD VIS AND WIND

Example: see airport list